createdAt,value
2023-01-19T00:04:02.491Z,13.43
2023-01-19T00:09:04.441Z,12.20
2023-01-19T00:14:06.311Z,12.27
2023-01-19T00:19:08.784Z,11.07
2023-01-19T00:24:10.738Z,12.63
2023-01-19T00:29:13.530Z,13.75
2023-01-19T00:34:15.479Z,15.20
2023-01-19T00:39:17.274Z,14.45
2023-01-19T00:44:19.083Z,14.82
2023-01-19T00:49:20.996Z,12.70
2023-01-19T00:54:22.716Z,11.82
2023-01-19T00:59:25.937Z,10.88
2023-01-19T01:04:27.767Z,12.27
2023-01-19T01:09:30.099Z,11.23
2023-01-19T01:14:32.017Z,13.68
2023-01-19T01:19:34.085Z,17.83
2023-01-19T01:24:36.291Z,14.57
2023-01-19T01:29:39.743Z,14.95
2023-01-19T01:34:41.904Z,13.55
2023-01-19T01:39:43.671Z,15.48
2023-01-19T01:44:52.439Z,15.30
2023-01-19T01:50:04.159Z,17.38
2023-01-19T01:55:07.385Z,18.42
2023-01-19T02:00:10.900Z,16.35
2023-01-19T02:05:26.818Z,16.60
2023-01-19T02:10:47.288Z,11.50
2023-01-19T02:15:51.824Z,14.88
2023-01-19T02:21:00.128Z,17.90
2023-01-19T02:26:02.644Z,16.88
2023-01-19T02:31:04.829Z,17.70
2023-01-19T02:36:09.851Z,17.20
2023-01-19T02:41:15.339Z,16.30
2023-01-19T02:46:17.309Z,21.33
2023-01-19T02:51:24.207Z,16.85
2023-01-19T02:56:38.519Z,17.58
2023-01-19T03:02:11.184Z,21.08
2023-01-19T03:07:22.063Z,20.40
2023-01-19T03:12:25.955Z,19.80
2023-01-19T03:17:31.068Z,16.67
2023-01-19T03:22:34.216Z,15.88
2023-01-19T03:27:40.916Z,16.40
2023-01-19T03:32:51.611Z,18.40
2023-01-19T03:37:58.222Z,20.48
2023-01-19T03:43:02.094Z,17.27
2023-01-19T03:48:05.296Z,15.93
2023-01-19T03:53:11.419Z,17.27
2023-01-19T03:58:13.411Z,18.77
2023-01-19T04:03:16.983Z,20.40
2023-01-19T04:08:19.448Z,21.75
2023-01-19T04:13:21.214Z,20.33
2023-01-19T04:18:22.917Z,16.70
2023-01-19T04:23:25.274Z,17.45
2023-01-19T04:28:27.676Z,17.63
2023-01-19T04:33:30.031Z,19.45
2023-01-19T04:38:32.167Z,16.58
2023-01-19T04:43:34.050Z,19.58
2023-01-19T04:48:35.959Z,19.63
2023-01-19T04:53:37.812Z,19.95
2023-01-19T04:58:39.808Z,15.82
2023-01-19T05:03:41.507Z,18.88
2023-01-19T05:08:45.286Z,14.20
2023-01-19T05:13:47.198Z,19.40
2023-01-19T05:18:48.994Z,17.52
2023-01-19T05:23:50.676Z,16.23
2023-01-19T05:28:52.351Z,15.93
2023-01-19T05:33:54.106Z,17.52
2023-01-19T05:38:56.118Z,18.02
2023-01-19T05:43:59.285Z,16.92
2023-01-19T05:49:04.393Z,15.70
2023-01-19T05:54:07.522Z,15.38
2023-01-19T05:59:10.554Z,14.70
2023-01-19T06:04:12.221Z,16.05
2023-01-19T06:09:14.344Z,22.88
2023-01-19T06:14:16.163Z,14.88
2023-01-19T06:19:18.113Z,17.23
2023-01-19T06:24:20.101Z,15.88
2023-01-19T06:29:22.338Z,16.55
2023-01-19T06:34:29.150Z,20.00
2023-01-19T06:39:31.290Z,17.10
2023-01-19T06:44:33.107Z,16.35
2023-01-19T06:49:35.007Z,16.25
2023-01-19T06:54:36.975Z,17.13
2023-01-19T06:59:39.685Z,17.63
2023-01-19T07:04:41.673Z,15.85
2023-01-19T07:09:43.353Z,20.13
2023-01-19T07:14:45.266Z,18.15
2023-01-19T07:19:47.109Z,19.17
2023-01-19T07:24:48.871Z,19.50
2023-01-19T07:29:50.760Z,23.23
2023-01-19T07:34:52.348Z,19.35
2023-01-19T07:39:54.178Z,22.17
2023-01-19T07:44:55.939Z,18.15
2023-01-19T07:49:57.768Z,16.95
2023-01-19T07:54:59.562Z,19.10
2023-01-19T08:00:01.395Z,31.30
2023-01-19T08:05:03.378Z,28.33
2023-01-19T08:10:05.545Z,46.47
2023-01-19T08:15:08.195Z,23.50
2023-01-19T08:20:11.230Z,22.42
2023-01-19T08:25:12.871Z,22.73
2023-01-19T08:30:15.001Z,20.17
2023-01-19T08:35:16.696Z,21.00
2023-01-19T08:40:18.512Z,20.52
2023-01-19T08:45:20.588Z,16.23
2023-01-19T08:50:22.764Z,14.85
2023-01-19T08:55:25.445Z,17.00
2023-01-19T09:00:27.643Z,14.10
2023-01-19T09:05:32.196Z,14.60
2023-01-19T09:10:38.206Z,13.27
2023-01-19T09:15:41.297Z,13.40
2023-01-19T09:20:45.190Z,11.27
2023-01-19T09:25:47.330Z,13.20
2023-01-19T09:30:49.367Z,15.82
2023-01-19T09:35:51.994Z,11.93
2023-01-19T09:40:56.322Z,13.43
2023-01-19T09:46:00.437Z,11.90
2023-01-19T09:51:04.883Z,11.93
2023-01-19T09:56:12.456Z,10.30
2023-01-19T10:01:35.602Z,11.57
2023-01-19T10:06:37.466Z,12.38
2023-01-19T10:11:53.311Z,12.15
2023-01-19T10:17:22.402Z,8.25
2023-01-19T10:22:27.099Z,13.63
2023-01-19T10:27:32.320Z,9.93
2023-01-19T10:32:36.113Z,10.60
2023-01-19T10:37:38.691Z,10.93
2023-01-19T10:42:42.307Z,8.65
2023-01-19T10:47:47.060Z,9.20
2023-01-19T10:52:54.381Z,9.98
2023-01-19T10:57:57.580Z,10.47
2023-01-19T11:03:00.347Z,8.48
2023-01-19T11:08:22.863Z,7.93
2023-01-19T11:13:24.860Z,8.20
2023-01-19T11:18:40.191Z,9.10
2023-01-19T11:23:51.275Z,8.05
2023-01-19T11:28:56.176Z,10.77
2023-01-19T11:34:22.094Z,8.90
2023-01-19T11:39:28.277Z,7.82
2023-01-19T11:44:37.489Z,9.65
2023-01-19T11:49:47.100Z,9.65
2023-01-19T11:54:59.185Z,9.75
2023-01-19T12:00:05.314Z,8.93
2023-01-19T12:05:14.801Z,8.77
2023-01-19T12:10:37.299Z,12.70
2023-01-19T12:15:44.462Z,13.32
2023-01-19T12:20:53.516Z,11.13
2023-01-19T12:26:16.474Z,8.75
2023-01-19T12:31:21.764Z,9.68
2023-01-19T12:36:26.706Z,5.82
2023-01-19T12:41:38.691Z,5.97
2023-01-19T12:46:52.639Z,4.70
2023-01-19T12:52:17.345Z,7.47
2023-01-19T12:57:33.450Z,4.60
2023-01-19T13:02:44.096Z,22.88
2023-01-19T13:08:12.595Z,29.90
2023-01-19T13:13:22.770Z,4.03
2023-01-19T13:18:28.482Z,3.55
2023-01-19T13:23:51.471Z,5.57
2023-01-19T13:28:57.579Z,3.00
2023-01-19T13:34:01.662Z,2.45
2023-01-19T13:39:06.508Z,2.90
2023-01-19T13:44:20.856Z,3.75
2023-01-19T13:49:29.236Z,1.77
2023-01-19T13:54:31.308Z,2.33
2023-01-19T13:59:33.103Z,2.50
2023-01-19T14:04:34.947Z,4.82
2023-01-19T14:09:36.659Z,2.53
2023-01-19T14:14:38.696Z,5.68
2023-01-19T14:19:51.049Z,3.38
2023-01-19T14:24:52.824Z,2.80
2023-01-19T14:29:54.970Z,4.25
2023-01-19T14:35:04.821Z,3.78
2023-01-19T14:40:13.250Z,2.13
2023-01-19T14:45:22.453Z,3.13
2023-01-19T14:50:31.196Z,2.30
2023-01-19T14:55:51.330Z,2.83
2023-01-19T15:00:56.328Z,1.73
2023-01-19T15:06:00.255Z,1.20
2023-01-19T15:11:10.824Z,2.15
2023-01-19T15:16:12.574Z,1.48
2023-01-19T15:21:16.111Z,2.00
2023-01-19T15:26:20.850Z,1.30
2023-01-19T15:31:24.913Z,1.92
2023-01-19T15:36:27.193Z,1.73
2023-01-19T15:41:31.072Z,1.08
2023-01-19T15:46:34.827Z,1.85
2023-01-19T15:51:36.597Z,3.15
2023-01-19T15:56:38.313Z,5.35
2023-01-19T16:01:40.490Z,1.83
2023-01-19T16:06:42.401Z,10.52
2023-01-19T16:11:44.610Z,20.45
2023-01-19T16:16:46.535Z,18.55
2023-01-19T16:21:48.650Z,6.63
2023-01-19T16:26:50.431Z,8.13
2023-01-19T16:31:52.166Z,10.38
2023-01-19T16:36:54.035Z,20.70
2023-01-19T16:41:55.927Z,44.50
2023-01-19T16:46:57.679Z,66.97
2023-01-19T16:51:59.533Z,49.25
2023-01-19T16:57:01.907Z,30.80
2023-01-19T17:02:03.802Z,18.73
2023-01-19T17:07:05.845Z,14.85
2023-01-19T17:12:09.205Z,18.52
2023-01-19T17:17:10.900Z,12.27
2023-01-19T17:22:13.549Z,10.70
2023-01-19T17:27:15.466Z,9.05
2023-01-19T17:32:17.257Z,11.98
2023-01-19T17:37:19.067Z,9.32
2023-01-19T17:42:20.864Z,8.85
2023-01-19T17:47:25.558Z,11.57
2023-01-19T17:52:27.598Z,8.52
2023-01-19T17:57:30.836Z,10.55
2023-01-19T18:02:33.180Z,8.40
2023-01-19T18:07:38.464Z,12.07
2023-01-19T18:12:41.635Z,11.57
2023-01-19T18:17:43.570Z,9.32
2023-01-19T18:22:45.400Z,8.90
2023-01-19T18:27:51.761Z,19.73
2023-01-19T18:32:53.591Z,11.40
2023-01-19T18:37:57.344Z,9.23
2023-01-19T18:42:59.386Z,11.95
2023-01-19T18:48:02.635Z,9.05
2023-01-19T18:53:05.444Z,12.80
2023-01-19T18:58:07.590Z,11.90
2023-01-19T19:03:10.575Z,11.10
2023-01-19T19:08:13.063Z,10.52
2023-01-19T19:13:16.450Z,11.23
2023-01-19T19:18:18.860Z,11.13
2023-01-19T19:23:20.860Z,10.10
2023-01-19T19:28:22.744Z,13.43
2023-01-19T19:33:24.823Z,11.82
2023-01-19T19:38:28.484Z,13.23
2023-01-19T19:43:33.275Z,12.27
2023-01-19T19:48:39.322Z,11.05
2023-01-19T19:53:41.432Z,33.30
2023-01-19T19:58:43.651Z,19.85
2023-01-19T20:03:46.110Z,19.73
2023-01-19T20:08:49.922Z,16.05
2023-01-19T20:13:52.239Z,15.65
2023-01-19T20:18:57.254Z,17.45
2023-01-19T20:24:02.813Z,13.85
2023-01-19T20:29:10.563Z,11.10
2023-01-19T20:34:14.860Z,13.85
2023-01-19T20:39:20.097Z,11.25
2023-01-19T20:44:24.273Z,13.55
2023-01-19T20:49:27.756Z,14.13
2023-01-19T20:54:30.589Z,22.55
2023-01-19T20:59:34.305Z,20.35
2023-01-19T21:04:36.081Z,18.42
2023-01-19T21:09:38.999Z,15.30
2023-01-19T21:14:43.223Z,18.85
2023-01-19T21:19:46.663Z,15.82
2023-01-19T21:24:48.799Z,16.50
2023-01-19T21:29:50.738Z,14.23
2023-01-19T21:34:53.055Z,17.67
2023-01-19T21:39:55.100Z,13.68
2023-01-19T21:44:56.979Z,13.32
2023-01-19T21:49:58.896Z,14.02
2023-01-19T21:55:00.863Z,12.23
2023-01-19T22:00:02.859Z,11.98
2023-01-19T22:05:10.786Z,19.23
2023-01-19T22:10:13.103Z,16.80
2023-01-19T22:15:15.677Z,15.70
2023-01-19T22:20:17.792Z,12.18
2023-01-19T22:25:23.982Z,10.90
2023-01-19T22:30:26.153Z,14.10
2023-01-19T22:35:28.258Z,14.30
2023-01-19T22:40:30.445Z,13.30
2023-01-19T22:45:47.455Z,9.27
2023-01-19T22:50:49.406Z,15.60
2023-01-19T22:55:51.260Z,10.85
2023-01-19T23:00:53.381Z,11.43
2023-01-19T23:05:55.598Z,11.77
2023-01-19T23:10:57.624Z,11.30
2023-01-19T23:16:00.251Z,13.40
2023-01-19T23:21:07.859Z,15.48
2023-01-19T23:26:15.242Z,13.13
2023-01-19T23:31:18.491Z,11.40
2023-01-19T23:36:21.956Z,11.95
2023-01-19T23:41:25.888Z,12.48
2023-01-19T23:46:28.661Z,12.57
2023-01-19T23:51:32.806Z,13.43
2023-01-19T23:56:38.073Z,14.63
